Time;durP1;ratioP1;P1;durP2;ratioP2;P2;SDS_P1;SDS_P2;PMS_P1;PMS_P2;Temp;Humidity;BMP_temperature;BMP_pressure;BME280_temperature;BME280_humidity;BME280_pressure;Samples;Min_cycle;Max_cycle;Signal;HPM_P1;HPM_P2
2022/11/28 00:00:15;;;;;;;98.50;39.70;;;;;;;2.60;100.00;101230.16;5092501;28;20042;-76
2022/11/28 00:02:41;;;;;;;96.18;41.63;;;;;;;2.55;100.00;101222.94;5093240;28;20032;-77
2022/11/28 00:05:09;;;;;;;95.57;39.88;;;;;;;2.50;100.00;101214.13;5094003;28;20020;-76
2022/11/28 00:07:34;;;;;;;89.90;38.53;;;;;;;2.45;100.00;101217.38;5093367;28;20044;-76
2022/11/28 00:10:00;;;;;;;96.15;39.83;;;;;;;2.40;100.00;101210.16;5094158;28;20097;-76
2022/11/28 00:12:27;;;;;;;88.80;40.33;;;;;;;2.40;100.00;101215.81;5095117;28;20040;-77
2022/11/28 00:14:53;;;;;;;92.28;39.03;;;;;;;2.39;100.00;101211.38;5095613;28;20031;-78
2022/11/28 00:17:18;;;;;;;97.82;39.17;;;;;;;2.39;100.00;101207.78;5093886;28;20032;-78
2022/11/28 00:19:44;;;;;;;94.13;43.15;;;;;;;2.38;100.00;101204.16;5095860;28;20477;-78
2022/11/28 00:22:09;;;;;;;98.22;42.70;;;;;;;2.35;100.00;101190.88;5098528;28;20053;-77
2022/11/28 00:24:34;;;;;;;90.97;38.65;;;;;;;2.31;100.00;101190.91;5116753;28;20020;-77
2022/11/28 00:27:00;;;;;;;89.88;40.50;;;;;;;2.27;100.00;101186.50;5116455;28;20381;-76
2022/11/28 00:29:25;;;;;;;83.30;37.83;;;;;;;2.19;100.00;101185.75;5115111;28;20031;-75
2022/11/28 00:31:50;;;;;;;95.13;40.22;;;;;;;2.14;100.00;101177.75;5109488;28;20024;-76
2022/11/28 00:34:17;;;;;;;92.15;40.90;;;;;;;2.07;100.00;101189.06;5110692;28;20050;-76
2022/11/28 00:36:44;;;;;;;93.72;40.03;;;;;;;2.00;100.00;101177.03;5110584;28;20092;-76
2022/11/28 00:39:09;;;;;;;92.07;40.28;;;;;;;1.90;100.00;101184.34;5095251;28;20375;-76
2022/11/28 00:41:35;;;;;;;108.28;40.97;;;;;;;1.81;100.00;101184.00;5093787;28;20494;-76
2022/11/28 00:44:00;;;;;;;87.50;40.60;;;;;;;1.73;100.00;101182.44;5092050;28;20065;-76
2022/11/28 00:46:26;;;;;;;88.85;40.00;;;;;;;1.64;100.00;101182.09;5093511;28;20085;-77
2022/11/28 00:48:52;;;;;;;86.38;37.15;;;;;;;1.55;100.00;101174.09;5093269;28;20341;-77
2022/11/28 00:51:22;;;;;;;86.85;37.65;;;;;;;1.46;100.00;101177.31;5093619;28;20032;-77
2022/11/28 00:53:50;;;;;;;95.45;41.22;;;;;;;1.39;100.00;101185.00;5094910;28;20481;-77
2022/11/28 00:56:18;;;;;;;95.40;41.58;;;;;;;1.31;100.00;101181.41;5092796;28;20031;-78
2022/11/28 00:58:44;;;;;;;99.40;40.75;;;;;;;1.22;100.00;101183.06;5092590;28;20485;-76
2022/11/28 01:01:15;;;;;;;92.55;39.40;;;;;;;1.17;100.00;101175.03;5092834;28;20056;-75
2022/11/28 01:03:41;;;;;;;95.85;39.22;;;;;;;1.11;100.00;101176.69;5092554;28;20396;-75
2022/11/28 01:06:08;;;;;;;94.43;43.03;;;;;;;1.09;100.00;101179.09;5091780;28;20028;-75
2022/11/28 01:08:34;;;;;;;88.63;39.80;;;;;;;1.04;100.00;101175.47;5092852;28;20044;-75
2022/11/28 01:11:00;;;;;;;92.72;40.70;;;;;;;1.04;100.00;101169.84;5093893;28;20464;-77
2022/11/28 01:13:25;;;;;;;91.75;39.83;;;;;;;1.04;100.00;101172.66;5094362;28;20113;-77
2022/11/28 01:15:51;;;;;;;95.45;40.22;;;;;;;1.00;100.00;101157.81;5094432;28;20036;-76
2022/11/28 01:18:16;;;;;;;94.85;41.55;;;;;;;1.03;100.00;101164.63;5094331;28;20016;-76
2022/11/28 01:20:42;;;;;;;93.93;38.13;;;;;;;1.01;100.00;101164.22;5094223;28;20024;-76
2022/11/28 01:23:07;;;;;;;100.47;41.25;;;;;;;0.97;100.00;101161.44;5094368;28;20092;-77
2022/11/28 01:25:33;;;;;;;106.38;41.92;;;;;;;0.82;100.00;101142.97;5094176;28;20361;-77
2022/11/28 01:27:58;;;;;;;90.10;41.13;;;;;;;0.88;100.00;101151.81;5092709;28;20050;-76
2022/11/28 01:30:23;;;;;;;96.35;43.53;;;;;;;0.80;100.00;101136.97;5093649;28;20024;-77
2022/11/28 01:32:49;;;;;;;95.82;41.88;;;;;;;0.74;100.00;101141.41;5094178;28;20028;-76
2022/11/28 01:35:14;;;;;;;89.32;40.47;;;;;;;0.77;100.00;101136.97;5094453;28;20092;-76
2022/11/28 01:37:40;;;;;;;101.57;42.90;;;;;;;0.81;100.00;101132.16;5094124;28;20035;-77
2022/11/28 01:40:06;;;;;;;88.15;40.63;;;;;;;0.84;100.00;101120.88;5094090;28;20118;-77
2022/11/28 01:42:31;;;;;;;108.25;44.47;;;;;;;0.89;100.00;101119.66;5093743;28;20472;-77
2022/11/28 01:45:05;;;;;;;101.55;41.75;;;;;;;0.95;100.00;101116.03;5092694;28;20035;-76
2022/11/28 01:47:31;;;;;;;102.00;43.35;;;;;;;0.99;100.00;101119.63;5092699;28;20036;-76
2022/11/28 01:49:56;;;;;;;101.35;42.97;;;;;;;1.08;100.00;101116.38;5092659;28;20425;-76
2022/11/28 01:52:22;;;;;;;97.90;47.08;;;;;;;1.14;100.00;101120.38;5092442;28;20036;-77
2022/11/28 01:54:50;;;;;;;100.65;44.00;;;;;;;1.19;100.00;101117.13;5092544;28;20032;-76
2022/11/28 01:57:19;;;;;;;93.65;43.90;;;;;;;1.25;100.00;101112.69;5093546;28;20392;-77
2022/11/28 01:59:49;;;;;;;99.25;44.70;;;;;;;1.24;100.00;101104.66;5092662;28;20360;-76
2022/11/28 02:02:24;;;;;;;91.35;45.38;;;;;;;1.31;100.00;101110.22;5093778;28;20028;-76
2022/11/28 02:04:49;;;;;;;103.00;45.85;;;;;;;1.32;100.00;101101.38;5092528;28;20032;-77
2022/11/28 02:07:15;;;;;;;103.63;44.75;;;;;;;1.30;100.00;101098.19;5093205;28;20056;-77
2022/11/28 02:09:40;;;;;;;105.80;45.85;;;;;;;1.28;100.00;101102.63;5093510;28;20089;-77
2022/11/28 02:12:11;;;;;;;98.72;42.70;;;;;;;1.29;100.00;101096.59;5094034;28;20064;-77
2022/11/28 02:15:01;;;;;;;96.40;45.40;;;;;;;1.27;100.00;101093.38;5093489;28;20036;-77
2022/11/28 02:17:37;;;;;;;99.00;46.88;;;;;;;1.26;100.00;101085.31;5093416;28;20036;-77
2022/11/28 02:20:40;;;;;;;103.85;47.40;;;;;;;1.27;100.00;101090.56;5092213;28;20028;-77
2022/11/28 02:23:15;;;;;;;98.05;46.28;;;;;;;1.26;100.00;101071.25;5068939;28;20055;-78
2022/11/28 02:25:56;;;;;;;93.32;44.85;;;;;;;1.30;100.00;101078.50;5092368;28;20035;-77
2022/11/28 02:28:45;;;;;;;93.40;44.55;;;;;;;1.31;100.00;101068.81;5091920;28;20039;-75
2022/11/28 02:31:23;;;;;;;98.45;42.83;;;;;;;1.36;100.00;101076.00;5093653;28;20089;-78
2022/11/28 02:33:54;;;;;;;93.50;44.60;;;;;;;1.33;100.00;101072.03;5093078;28;20122;-76
2022/11/28 02:36:28;;;;;;;107.80;45.90;;;;;;;1.37;100.00;101072.81;5073698;28;20035;-76
2022/11/28 02:39:24;;;;;;;110.53;47.58;;;;;;;1.40;100.00;101062.75;5090287;28;20204;-76
2022/11/28 02:41:56;;;;;;;109.05;46.42;;;;;;;1.45;100.00;101068.72;5094241;28;20043;-76
2022/11/28 02:44:30;;;;;;;91.30;44.05;;;;;;;1.49;100.00;101068.72;5094175;28;20032;-76
2022/11/28 02:47:01;;;;;;;94.00;44.65;;;;;;;1.52;100.00;101072.72;5095347;28;20404;-76
2022/11/28 02:49:26;;;;;;;92.37;45.53;;;;;;;1.52;100.00;101070.69;5095285;28;20031;-76
2022/11/28 02:51:56;;;;;;;93.45;43.45;;;;;;;1.52;100.00;101073.50;5095684;28;20277;-75
2022/11/28 02:54:23;;;;;;;97.30;44.50;;;;;;;1.53;100.00;101069.50;5095285;28;20032;-76
2022/11/28 02:56:50;;;;;;;96.45;44.17;;;;;;;1.59;100.00;101072.69;5095120;28;20070;-77
2022/11/28 02:59:37;;;;;;;89.93;43.47;;;;;;;1.64;100.00;101066.59;5095018;28;20028;-76
2022/11/28 03:02:27;;;;;;;87.65;42.15;;;;;;;1.68;100.00;101071.00;5095085;28;20024;-77
2022/11/28 03:05:23;;;;;;;98.35;44.05;;;;;;;1.72;100.00;101068.16;5095226;28;20039;-76
2022/11/28 03:08:01;;;;;;;91.68;41.20;;;;;;;1.73;100.00;101069.75;5095554;28;20488;-76
2022/11/28 03:10:36;;;;;;;95.88;45.20;;;;;;;1.75;100.00;101070.16;5097224;28;20359;-76
2022/11/28 03:13:35;;;;;;;98.72;42.63;;;;;;;1.79;100.00;101062.47;5095778;28;20056;-76
2022/11/28 03:16:31;;;;;;;97.78;43.50;;;;;;;1.80;100.00;101056.41;5095704;28;20028;-76
2022/11/28 03:19:26;;;;;;;109.20;47.20;;;;;;;1.76;100.00;101057.66;5097033;28;20020;-76
2022/11/28 03:22:16;;;;;;;105.53;46.28;;;;;;;1.72;100.00;101051.25;5093900;28;20387;-77
2022/11/28 03:24:43;;;;;;;107.90;46.38;;;;;;;1.69;100.00;101054.91;5096484;28;20028;-76
2022/11/28 03:27:44;;;;;;;104.55;46.45;;;;;;;1.70;100.00;101051.66;5095667;28;20032;-76
2022/11/28 03:30:18;;;;;;;122.03;51.60;;;;;;;1.70;100.00;101051.66;5044433;28;20487;-76
2022/11/28 03:32:45;;;;;;;118.53;48.85;;;;;;;1.68;100.00;101056.91;5096509;28;20491;-76
2022/11/28 03:35:15;;;;;;;124.30;53.42;;;;;;;1.67;100.00;101046.84;5095182;28;20036;-77
2022/11/28 03:38:16;;;;;;;129.40;50.90;;;;;;;1.69;100.00;101049.28;5096635;28;20023;-76
2022/11/28 03:40:45;;;;;;;121.55;49.40;;;;;;;1.74;100.00;101046.00;5063280;28;20552;-76
2022/11/28 03:43:15;;;;;;;115.75;50.17;;;;;;;1.71;100.00;101036.34;5095037;28;20036;-77
2022/11/28 03:45:44;;;;;;;121.80;50.15;;;;;;;1.76;100.00;101041.56;5094975;28;20380;-76
2022/11/28 03:48:15;;;;;;;113.50;51.90;;;;;;;1.78;100.00;101036.31;5094985;28;20111;-76
2022/11/28 03:50:44;;;;;;;131.03;53.27;;;;;;;1.82;100.00;101028.63;5094936;28;20031;-76
2022/11/28 03:53:24;;;;;;;128.60;51.70;;;;;;;1.80;100.00;101021.78;5095544;28;20101;-77
2022/11/28 03:56:03;;;;;;;123.97;50.13;;;;;;;1.81;100.00;101023.41;5096020;28;20032;-76
2022/11/28 03:58:34;;;;;;;130.40;52.70;;;;;;;1.78;100.00;101024.25;5095133;28;20024;-76
2022/11/28 04:01:04;;;;;;;126.05;52.80;;;;;;;1.80;100.00;101038.69;5078185;28;20113;-76
2022/11/28 04:03:52;;;;;;;127.18;55.03;;;;;;;1.80;100.00;101028.22;5096109;28;20028;-77
2022/11/28 04:06:29;;;;;;;129.38;51.63;;;;;;;1.82;100.00;101025.81;5095739;28;20028;-77
2022/11/28 04:09:07;;;;;;;126.45;53.58;;;;;;;1.85;100.00;101029.81;5094317;28;20039;-76
2022/11/28 04:11:43;;;;;;;132.35;51.35;;;;;;;1.82;100.00;101014.53;5094957;28;20035;-76
2022/11/28 04:14:25;;;;;;;118.68;50.47;;;;;;;1.94;100.00;101009.63;5094944;28;20024;-77
2022/11/28 04:16:55;;;;;;;114.78;48.35;;;;;;;1.99;100.00;101020.44;5095161;28;20036;-76
2022/11/28 04:19:24;;;;;;;119.82;51.08;;;;;;;2.03;100.00;101018.38;5094596;28;20035;-77
2022/11/28 04:21:59;;;;;;;124.75;53.72;;;;;;;2.03;100.00;101021.22;5095861;28;20024;-77
2022/11/28 04:24:32;;;;;;;124.18;49.72;;;;;;;2.00;100.00;101011.56;5094402;28;20384;-76
2022/11/28 04:27:01;;;;;;;124.90;49.42;;;;;;;2.06;100.00;101009.09;5094533;28;20479;-77
2022/11/28 04:29:27;;;;;;;136.38;52.78;;;;;;;2.01;100.00;101006.72;5095949;28;20101;-76
2022/11/28 04:31:55;;;;;;;125.97;50.15;;;;;;;2.01;100.00;101007.53;5098946;28;20024;-77
2022/11/28 04:34:22;;;;;;;125.28;52.10;;;;;;;1.96;100.00;101015.63;5111336;28;20035;-76
2022/11/28 04:36:48;;;;;;;122.72;50.35;;;;;;;1.98;100.00;101007.56;5113487;28;20035;-76
2022/11/28 04:39:18;;;;;;;127.75;51.85;;;;;;;1.97;100.00;101005.97;5112006;28;20028;-76
2022/11/28 04:41:51;;;;;;;130.45;51.88;;;;;;;2.01;100.00;101003.91;5102963;28;20024;-76
2022/11/28 04:44:25;;;;;;;133.63;51.53;;;;;;;1.99;100.00;100992.25;5104655;28;20464;-77
2022/11/28 04:46:52;;;;;;;120.65;52.97;;;;;;;2.06;100.00;101007.06;5102529;28;20195;-77
2022/11/28 04:49:17;;;;;;;141.85;51.72;;;;;;;2.07;100.00;100999.41;5094405;28;20448;-76
2022/11/28 04:52:05;;;;;;;131.95;53.45;;;;;;;2.08;100.00;100998.22;5095430;28;20046;-76
2022/11/28 04:54:59;;;;;;;138.32;50.17;;;;;;;2.12;100.00;100996.94;5095145;28;20148;-75
2022/11/28 04:57:36;;;;;;;130.38;51.40;;;;;;;2.17;100.00;101006.97;5093964;28;20376;-76
2022/11/28 05:00:05;;;;;;;129.05;53.28;;;;;;;2.21;100.00;101002.91;5094892;28;20136;-76
2022/11/28 05:02:32;;;;;;;130.10;52.63;;;;;;;2.27;100.00;100997.59;5093309;28;20107;-76
2022/11/28 05:04:58;;;;;;;116.30;48.30;;;;;;;2.32;100.00;100997.16;5093409;28;20452;-76
2022/11/28 05:07:23;;;;;;;121.75;51.70;;;;;;;2.34;100.00;101001.13;5094472;28;20047;-76
2022/11/28 05:09:49;;;;;;;122.32;50.00;;;;;;;2.33;100.00;100998.75;5094585;28;20036;-77
2022/11/28 05:12:14;;;;;;;116.55;50.10;;;;;;;2.35;100.00;101001.94;5094587;28;20059;-76
2022/11/28 05:14:40;;;;;;;124.80;48.28;;;;;;;2.35;100.00;101004.75;5093455;28;20050;-76
2022/11/28 05:17:06;;;;;;;111.05;46.30;;;;;;;2.39;100.00;101008.34;5094546;28;20028;-76
2022/11/28 05:19:31;;;;;;;109.82;43.22;;;;;;;2.35;100.00;101007.56;5094469;28;20027;-76
2022/11/28 05:21:57;;;;;;;117.32;44.42;;;;;;;2.35;100.00;101007.56;5094457;28;20032;-76
2022/11/28 05:24:22;;;;;;;116.18;45.80;;;;;;;2.31;100.00;101007.63;5094821;28;20031;-76
2022/11/28 05:26:48;;;;;;;101.50;43.42;;;;;;;2.35;100.00;101004.75;5093153;28;20495;-76
2022/11/28 05:29:13;;;;;;;105.60;44.20;;;;;;;2.36;100.00;101014.81;5094118;28;20031;-76
2022/11/28 05:31:38;;;;;;;101.80;44.85;;;;;;;2.35;100.00;101005.56;5093887;28;20042;-75
2022/11/28 05:34:04;;;;;;;100.68;41.55;;;;;;;2.35;100.00;101013.22;5093911;28;20081;-76
2022/11/28 05:36:29;;;;;;;103.50;41.92;;;;;;;2.31;100.00;101004.81;5094385;28;20028;-76
2022/11/28 05:38:55;;;;;;;101.53;41.03;;;;;;;2.29;100.00;101004.41;5094238;28;20487;-76
2022/11/28 05:41:23;;;;;;;105.70;43.30;;;;;;;2.25;100.00;100997.22;5094118;28;20459;-76
2022/11/28 05:43:50;;;;;;;114.65;45.67;;;;;;;2.24;100.00;100993.59;5093934;28;20028;-77
2022/11/28 05:46:36;;;;;;;114.53;43.65;;;;;;;2.22;100.00;100993.22;5092838;28;20557;-80
2022/11/28 05:49:10;;;;;;;117.38;43.08;;;;;;;2.21;100.00;100997.25;5093736;28;20031;-80
2022/11/28 05:51:36;;;;;;;109.35;42.00;;;;;;;2.23;100.00;100988.38;5094420;28;20036;-80
2022/11/28 05:54:01;;;;;;;101.38;41.20;;;;;;;2.20;100.00;100994.84;5094458;28;20123;-81
2022/11/28 05:56:29;;;;;;;105.68;41.92;;;;;;;2.23;100.00;100994.84;5094110;28;20052;-79
2022/11/28 05:58:56;;;;;;;110.75;44.35;;;;;;;2.27;100.00;100994.78;5093904;28;20468;-78
2022/11/28 06:01:25;;;;;;;120.35;45.83;;;;;;;2.26;100.00;100982.72;5094049;28;20016;-78
2022/11/28 06:03:56;;;;;;;112.18;43.55;;;;;;;2.27;100.00;100981.50;5075636;28;20035;-79
2022/11/28 06:06:23;;;;;;;113.07;43.25;;;;;;;2.25;100.00;100978.28;5093251;28;20020;-79
2022/11/28 06:08:50;;;;;;;117.00;43.58;;;;;;;2.25;100.00;100975.47;5075436;28;20408;-80
2022/11/28 06:11:16;;;;;;;107.70;42.20;;;;;;;2.23;100.00;100977.91;5059424;28;20118;-78
2022/11/28 06:13:43;;;;;;;110.90;43.00;;;;;;;2.19;100.00;100979.19;5094322;28;20536;-78
2022/11/28 06:16:19;;;;;;;108.38;45.08;;;;;;;2.21;100.00;100974.69;5075763;28;20043;-79
2022/11/28 06:18:46;;;;;;;118.97;44.85;;;;;;;2.17;100.00;100978.78;5094069;28;20024;-78
2022/11/28 06:21:14;;;;;;;109.18;43.47;;;;;;;2.17;100.00;100981.59;5093690;28;20040;-80
2022/11/28 06:23:40;;;;;;;100.30;40.88;;;;;;;2.17;100.00;100970.31;5094428;28;20043;-79
2022/11/28 06:26:08;;;;;;;102.13;43.75;;;;;;;2.19;100.00;100965.84;5095802;28;20039;-78
2022/11/28 06:28:34;;;;;;;106.13;43.33;;;;;;;2.23;100.00;100965.84;5095688;28;20035;-79
2022/11/28 06:31:00;;;;;;;110.97;44.53;;;;;;;2.23;100.00;100963.00;5092481;28;20028;-78
2022/11/28 06:33:25;;;;;;;105.90;43.58;;;;;;;2.23;100.00;100961.00;5092335;28;20064;-80
2022/11/28 06:35:51;;;;;;;117.25;43.10;;;;;;;2.21;100.00;100971.09;5091269;28;20094;-80
2022/11/28 06:38:16;;;;;;;99.38;40.97;;;;;;;2.19;100.00;100971.50;5094019;28;20038;-80
2022/11/28 06:40:41;;;;;;;112.80;44.10;;;;;;;2.20;100.00;100966.66;5096417;28;20067;-79
2022/11/28 06:43:07;;;;;;;95.28;39.63;;;;;;;2.17;100.00;100962.66;5091096;28;20026;-79
2022/11/28 06:45:33;;;;;;;112.70;42.42;;;;;;;2.19;100.00;100965.84;5073530;28;20460;-80
2022/11/28 06:47:59;;;;;;;107.65;45.00;;;;;;;2.19;100.00;100957.41;5089856;28;20055;-80
2022/11/28 06:50:25;;;;;;;104.53;44.88;;;;;;;2.17;100.00;100950.59;5091302;28;20106;-80
2022/11/28 06:52:50;;;;;;;112.38;46.22;;;;;;;2.25;100.00;100958.53;5073140;28;20139;-79
2022/11/28 06:55:16;;;;;;;104.63;41.55;;;;;;;2.27;100.00;100949.69;5091276;28;20107;-80
2022/11/28 06:57:42;;;;;;;110.40;46.65;;;;;;;2.28;100.00;100957.72;5092363;28;20039;-80
2022/11/28 07:00:08;;;;;;;120.18;43.58;;;;;;;2.28;100.00;100954.91;5089687;28;20028;-80
2022/11/28 07:02:33;;;;;;;104.85;45.47;;;;;;;2.29;100.00;100956.47;5090968;28;20020;-81
2022/11/28 07:04:58;;;;;;;108.22;47.03;;;;;;;2.31;100.00;100956.88;5089678;28;20035;-81
2022/11/28 07:07:24;;;;;;;112.22;44.05;;;;;;;2.31;100.00;100958.88;5090626;28;20040;-80
2022/11/28 07:09:50;;;;;;;101.03;43.83;;;;;;;2.29;100.00;100964.94;5089665;28;20036;-80
2022/11/28 07:12:16;;;;;;;101.20;43.63;;;;;;;2.28;100.00;100954.09;5089958;28;20024;-81
2022/11/28 07:14:41;;;;;;;104.45;42.47;;;;;;;2.29;100.00;100962.13;5093149;28;20024;-80
2022/11/28 07:17:07;;;;;;;91.72;43.78;;;;;;;2.26;100.00;100959.34;5093456;28;20039;-80
2022/11/28 07:19:32;;;;;;;103.72;43.60;;;;;;;2.28;100.00;100963.38;5093085;28;20169;-80
2022/11/28 07:21:57;;;;;;;101.68;43.45;;;;;;;2.33;100.00;100959.28;5092973;28;20032;-80
2022/11/28 07:24:23;;;;;;;116.00;44.58;;;;;;;2.38;100.00;100969.28;5092828;28;20579;-80
2022/11/28 07:26:49;;;;;;;106.75;47.00;;;;;;;2.39;100.00;100960.38;5093412;28;20034;-79
2022/11/28 07:29:17;;;;;;;114.28;46.55;;;;;;;2.32;100.00;100954.84;5087987;28;20028;-79
2022/11/28 07:31:44;;;;;;;109.55;47.80;;;;;;;2.35;100.00;100951.97;5097931;28;20039;-79
2022/11/28 07:34:13;;;;;;;114.78;47.42;;;;;;;2.38;100.00;100953.19;5100702;28;20119;-80
2022/11/28 07:36:40;;;;;;;116.38;46.80;;;;;;;2.48;100.00;100946.63;5095533;28;20469;-79
2022/11/28 07:39:07;;;;;;;99.95;45.80;;;;;;;2.58;100.00;100951.31;5096745;28;20078;-81
2022/11/28 07:41:34;;;;;;;107.88;47.35;;;;;;;2.77;100.00;100941.41;5096837;28;20024;-80
2022/11/28 07:44:02;;;;;;;114.95;49.53;;;;;;;3.00;100.00;100944.28;5078190;28;20056;-80
2022/11/28 07:46:30;;;;;;;96.72;44.83;;;;;;;3.26;100.00;100941.88;5095187;28;20036;-80
2022/11/28 07:48:57;;;;;;;112.75;49.95;;;;;;;3.41;100.00;100940.44;5095341;28;20046;-78
2022/11/28 07:51:27;;;;;;;104.13;49.10;;;;;;;3.49;100.00;100936.25;5096001;28;20123;-80
2022/11/28 07:53:54;;;;;;;101.55;48.92;;;;;;;3.59;100.00;100935.28;5079002;28;20080;-78
2022/11/28 07:56:26;;;;;;;98.40;46.60;;;;;;;3.74;100.00;100933.00;5095023;28;20068;-79
2022/11/28 07:58:52;;;;;;;;;;;;;;;3.74;100.00;100933.81;5096549;28;20024;-78
2022/11/28 08:01:42;;;;;;;101.47;46.30;;;;;;;3.75;100.00;100929.75;5095255;28;19961;-75
2022/11/28 08:04:09;;;;;;;86.70;44.47;;;;;;;3.78;100.00;100931.72;5094189;28;20051;-80
2022/11/28 08:06:36;;;;;;;88.75;43.90;;;;;;;3.77;100.00;100935.81;5095288;28;20395;-83
2022/11/28 08:09:03;;;;;;;86.20;40.88;;;;;;;3.76;100.00;100928.53;5095061;28;20044;-76
2022/11/28 08:11:31;;;;;;;89.05;44.95;;;;;;;3.78;100.00;100925.25;5095121;28;20091;-81
2022/11/28 08:13:57;;;;;;;82.40;42.45;;;;;;;3.83;100.00;100921.94;5096292;28;20035;-81
2022/11/28 08:16:24;;;;;;;97.18;44.47;;;;;;;3.82;100.00;100920.38;5096128;28;20381;-77
2022/11/28 08:18:50;;;;;;;78.25;41.00;;;;;;;3.86;100.00;100913.41;5095160;28;20031;-78
2022/11/28 08:21:24;;;;;;;83.35;42.00;;;;;;;3.83;100.00;100917.09;5094594;28;20032;-81
2022/11/28 08:23:52;;;;;;;80.78;39.92;;;;;;;3.87;100.00;100917.09;5095725;28;20422;-76
2022/11/28 08:26:23;;;;;;;79.63;41.00;;;;;;;3.82;100.00;100909.84;5077907;28;20047;-79
2022/11/28 08:28:57;;;;;;;73.82;39.75;;;;;;;3.77;100.00;100912.38;5094407;28;20047;-77
2022/11/28 08:31:29;;;;;;;81.28;40.63;;;;;;;3.71;100.00;100899.97;5095756;28;20095;-79
2022/11/28 08:33:57;;;;;;;77.03;42.63;;;;;;;3.67;100.00;100900.03;5095958;28;20024;-77
2022/11/28 08:36:24;;;;;;;78.28;39.30;;;;;;;3.65;100.00;100908.94;5096339;28;20032;-79
2022/11/28 08:38:51;;;;;;;85.53;41.40;;;;;;;3.74;100.00;100901.94;5077585;28;20012;-77
2022/11/28 08:41:19;;;;;;;78.10;39.92;;;;;;;3.71;100.00;100894.31;5104194;28;20012;-77
2022/11/28 08:43:45;;;;;;;82.28;42.42;;;;;;;3.81;100.00;100888.47;5114391;28;20016;-77
2022/11/28 08:46:15;;;;;;;83.18;38.60;;;;;;;3.87;100.00;100900.88;5116336;28;20076;-80
2022/11/28 08:48:50;;;;;;;84.03;39.30;;;;;;;3.82;100.00;100892.88;5094568;28;20098;-75
2022/11/28 08:51:19;;;;;;;76.47;38.95;;;;;;;3.76;100.00;100891.00;5107914;28;20046;-78
2022/11/28 08:53:50;;;;;;;75.38;39.17;;;;;;;3.75;100.00;100890.19;5109422;28;20008;-77
2022/11/28 08:56:30;;;;;;;80.22;38.67;;;;;;;3.78;100.00;100883.66;5088913;28;20358;-83
2022/11/28 08:58:56;;;;;;;79.22;39.08;;;;;;;3.79;100.00;100879.63;5094161;28;20020;-79
2022/11/28 09:01:24;;;;;;;72.80;36.95;;;;;;;3.81;100.00;100888.47;5094324;28;20019;-77
2022/11/28 09:03:52;;;;;;;70.55;37.45;;;;;;;3.88;100.00;100887.56;5095990;28;20024;-77
2022/11/28 09:06:20;;;;;;;71.35;35.78;;;;;;;4.01;100.00;100883.69;5078725;28;20032;-79
2022/11/28 09:08:48;;;;;;;62.15;32.75;;;;;;;4.18;100.00;100887.38;5093767;28;20123;-78
2022/11/28 09:11:16;;;;;;;63.58;31.40;;;;;;;4.24;100.00;100879.97;5073976;28;20028;-79
2022/11/28 09:13:43;;;;;;;70.60;32.47;;;;;;;4.16;100.00;100872.09;5077079;28;20037;-84
2022/11/28 09:16:10;;;;;;;56.58;30.77;;;;;;;4.04;100.00;100874.31;5073584;28;20462;-78
2022/11/28 09:18:42;;;;;;;62.78;32.72;;;;;;;3.93;100.00;100872.91;5090148;28;20028;-77
2022/11/28 09:21:11;;;;;;;63.10;31.30;;;;;;;3.82;100.00;100861.78;5073111;28;20035;-77
2022/11/28 09:23:38;;;;;;;57.70;32.22;;;;;;;3.73;100.00;100870.03;5089830;28;20590;-78
2022/11/28 09:26:15;;;;;;;66.18;33.45;;;;;;;3.63;100.00;100871.84;5090074;28;20032;-78
2022/11/28 09:28:41;;;;;;;63.30;30.85;;;;;;;3.58;100.00;100877.97;5089616;28;20170;-78
2022/11/28 09:31:07;;;;;;;62.90;32.72;;;;;;;3.63;100.00;100866.19;5092269;28;20119;-78
2022/11/28 09:33:42;;;;;;;58.47;30.23;;;;;;;3.81;100.00;100871.53;5072836;28;20482;-77
2022/11/28 09:36:13;;;;;;;62.83;32.97;;;;;;;4.01;100.00;100868.75;5094063;28;20111;-79
2022/11/28 09:38:39;;;;;;;65.88;31.73;;;;;;;4.17;100.00;100860.31;5094236;28;20024;-78
2022/11/28 09:41:42;;;;;;;64.30;32.50;;;;;;;4.36;100.00;100856.72;5093073;28;20032;-77
2022/11/28 09:44:15;;;;;;;60.90;33.70;;;;;;;4.56;100.00;100853.06;5093475;28;20053;-77
2022/11/28 09:46:57;;;;;;;56.72;32.40;;;;;;;4.74;100.00;100847.78;5093180;28;20031;-77
2022/11/28 09:49:32;;;;;;;63.28;32.65;;;;;;;4.74;100.00;100837.25;5094184;28;20544;-77
2022/11/28 09:52:00;;;;;;;59.50;32.00;;;;;;;4.59;100.00;100827.50;5093050;28;20032;-79
2022/11/28 09:54:46;;;;;;;59.10;31.75;;;;;;;4.42;100.00;100825.84;5094218;28;20032;-78
2022/11/28 09:57:17;;;;;;;66.78;31.92;;;;;;;4.26;100.00;100822.97;5096301;28;20016;-78
2022/11/28 09:59:42;;;;;;;69.75;32.95;;;;;;;4.11;100.00;100825.31;5076427;28;20028;-78
2022/11/28 10:02:26;;;;;;;70.47;32.08;;;;;;;4.00;100.00;100830.38;5075612;28;20360;-76
2022/11/28 10:05:23;;;;;;;58.80;30.13;;;;;;;3.88;100.00;100823.34;5093710;28;20101;-75
2022/11/28 10:08:02;;;;;;;63.13;31.67;;;;;;;3.83;100.00;100826.63;5092478;28;20384;-81
2022/11/28 10:10:58;;;;;;;67.63;33.03;;;;;;;3.81;100.00;100819.84;5094019;28;20101;-79
2022/11/28 10:13:43;;;;;;;64.18;33.65;;;;;;;3.80;100.00;100821.06;5093734;28;20048;-77
2022/11/28 10:17:14;;;;;;;58.40;29.80;;;;;;;3.80;100.00;100819.03;5092573;28;20031;-78
2022/11/28 10:19:47;;;;;;;56.47;29.25;;;;;;;3.85;100.00;100821.38;4972609;28;20035;-77
2022/11/28 10:22:24;;;;;;;60.35;30.35;;;;;;;3.82;100.00;100815.78;4948654;28;20518;-78
2022/11/28 10:24:55;;;;;;;56.88;28.60;;;;;;;3.81;100.00;100808.53;4959884;28;20034;-79
2022/11/28 10:27:28;;;;;;;61.28;30.73;;;;;;;3.81;100.00;100806.50;4960062;28;20046;-77
2022/11/28 10:30:15;;;;;;;56.95;29.02;;;;;;;3.87;100.00;100804.00;4975650;28;20034;-79
2022/11/28 10:33:01;;;;;;;53.80;27.38;;;;;;;3.85;100.00;100806.44;4977304;28;20030;-80
2022/11/28 10:35:41;;;;;;;60.45;28.08;;;;;;;3.84;100.00;100799.97;5011990;28;20032;-82
2022/11/28 10:38:12;;;;;;;56.67;27.00;;;;;;;3.85;100.00;100804.41;5092443;28;20037;-80
2022/11/28 10:40:42;;;;;;;54.80;26.42;;;;;;;3.91;100.00;100802.69;5093467;28;20477;-80
2022/11/28 10:43:46;;;;;;;55.75;25.95;;;;;;;3.93;100.00;100799.41;5093643;28;20035;-79
2022/11/28 10:46:28;;;;;;;81.57;27.17;;;;;;;3.92;100.00;100792.97;5069541;28;20032;-78
2022/11/28 10:49:23;;;;;;;51.15;27.13;;;;;;;3.91;100.00;100793.41;5093620;28;20093;-80
2022/11/28 10:52:07;;;;;;;48.47;25.48;;;;;;;3.94;100.00;100784.06;5093634;28;20039;-79
2022/11/28 10:54:52;;;;;;;57.65;25.92;;;;;;;3.92;100.00;100786.53;5091969;28;20024;-78
2022/11/28 10:57:23;;;;;;;49.63;23.92;;;;;;;3.92;100.00;100778.06;5092091;28;20028;-78
2022/11/28 10:59:58;;;;;;;57.78;24.42;;;;;;;3.87;100.00;100784.22;5092009;28;20021;-80
2022/11/28 11:02:43;;;;;;;45.95;24.67;;;;;;;3.89;100.00;100776.09;5096406;28;20464;-79
2022/11/28 11:05:28;;;;;;;50.17;26.20;;;;;;;3.88;100.00;100763.97;5097530;28;20024;-78
2022/11/28 11:08:19;;;;;;;53.00;24.55;;;;;;;3.93;100.00;100762.66;5095401;28;20461;-78
2022/11/28 11:11:24;;;;;;;47.28;25.02;;;;;;;4.00;100.00;100768.19;5096256;28;20040;-78
2022/11/28 11:14:04;;;;;;;42.47;23.45;;;;;;;4.11;100.00;100765.94;5097037;28;20553;-80
2022/11/28 11:16:51;;;;;;;49.60;24.70;;;;;;;4.09;100.00;100751.41;5096751;28;20040;-80
2022/11/28 11:19:26;;;;;;;46.25;23.13;;;;;;;4.31;100.00;100758.22;5097136;28;20024;-81
2022/11/28 11:22:02;;;;;;;50.97;23.63;;;;;;;4.49;100.00;100758.59;5097323;28;20028;-82
2022/11/28 11:24:29;;;;;;;47.22;22.08;;;;;;;4.61;100.00;100751.41;5095496;28;20391;-79
2022/11/28 11:27:06;;;;;;;44.88;21.15;;;;;;;4.72;100.00;100751.16;5095013;28;20036;-76